Change the Weather History Date:

Wednesday, September 25, 2013

  Actual Average (KP67) Record (KP67)
Temperature  
Mean Temperature 63 °F -  
Max Temperature 78 °F 66 °F 82 °F (1997)
Min Temperature 48 °F 42 °F 39 °F (1996)
Degree Days  
Heating Degree Days 2    
Growing Degree Days 13 (Base 50)    
Moisture  
Dew Point 53 °F    
Average Humidity 75    
Maximum Humidity 100    
Minimum Humidity 43    
Precipitation  
Precipitation 0.00 in - - ()
Sea Level Pressure  
Sea Level Pressure 29.80 in    
Wind  
Wind Speed 8 mph (SE)    
Max Wind Speed 22 mph    
Max Gust Speed 29 mph    
Visibility 8 miles    
Events      
Averages and records for this station are not official NWS values.
T = Trace of Precipitation, MM = Missing Value Source: NWS Daily Summary

Daily Weather History Graph

Daily Weather History Graph

Search for Another Location

Airport or City:

Trip Planner

Search our weather history database for the weather conditions in past years. The results will help you decide how hot, cold, wet, or windy it might be!

Date:

Astronomy

Sep. 25, 2013 Rise Set
Actual Time 7:21 AM CDT 7:21 PM CDT
Civil Twilight 6:51 AM CDT 7:51 PM CDT
Nautical Twilight 6:16 AM CDT 8:26 PM CDT
Astronomical Twilight 5:40 AM CDT 9:02 PM CDT
Moon 11:11 PM CDT (9/25) 1:46 PM CDT (9/25)
Length of Visible Light 12h 59m
Length of Day
12h 00m
Waning Gibbous, 64% of the Moon is Illuminated
Sep 25
Waning Gibbous
Sep 26
Last Quarter
Oct 4
New
Oct 11
First Quarter
Oct 18
Full

Hourly Weather History & Observations

Time (CDT) Temp. Dew Point Humidity Pressure Visibility Wind Dir Wind Speed Gust Speed Precip Events Conditions
12:15 AM 53.6 °F 51.8 °F 94% 29.90 in 10.0 mi SSE 3.5 mph - 0.00 in   Clear
12:35 AM 51.8 °F 51.8 °F 100% 29.90 in 2.5 mi Calm Calm - 0.00 in   Clear
12:55 AM 51.8 °F 51.8 °F 100% 29.90 in 10.0 mi SW 3.5 mph - 0.00 in   Clear
1:15 AM 51.8 °F 51.8 °F 100% 29.90 in 10.0 mi SSW 4.6 mph - 0.00 in   Clear
1:35 AM 50.0 °F 50.0 °F 100% 29.90 in 10.0 mi SSW 4.6 mph - 0.00 in   Clear
1:55 AM 50.0 °F 50.0 °F 100% 29.90 in 10.0 mi SSW 3.5 mph - 0.00 in   Clear
2:35 AM 50.0 °F 50.0 °F 100% 29.90 in 10.0 mi South 4.6 mph - 0.00 in   Clear
2:55 AM 51.8 °F 51.8 °F 100% 29.89 in 10.0 mi South 4.6 mph - 0.00 in   Clear
3:15 AM 50.0 °F 50.0 °F 100% 29.89 in 6.0 mi Calm Calm - 0.00 in   Clear
3:35 AM 50.0 °F 50.0 °F 100% 29.88 in 6.0 mi Calm Calm - 0.00 in   Clear
3:55 AM 48.2 °F 48.2 °F 100% 29.87 in 8.0 mi Calm Calm - 0.00 in   Clear
4:35 AM 48.2 °F 48.2 °F 100% 29.87 in 7.0 mi SSW 3.5 mph - 0.00 in   Clear
4:55 AM 48.2 °F 48.2 °F 100% 29.87 in 2.5 mi ESE 6.9 mph - 0.00 in   Clear
5:15 AM 48.2 °F 48.2 °F 100% 29.86 in 2.5 mi East 4.6 mph - 0.00 in   Clear
5:35 AM 48.2 °F 48.2 °F 100% 29.86 in 4.0 mi ESE 3.5 mph - 0.00 in   Clear
5:55 AM 48.2 °F 48.2 °F 100% 29.85 in 5.0 mi East 4.6 mph - 0.00 in   Clear
6:15 AM 48.2 °F 48.2 °F 100% 29.85 in 5.0 mi ESE 3.5 mph - 0.00 in   Clear
6:35 AM 48.2 °F 48.2 °F 100% 29.86 in 5.0 mi Calm Calm - 0.00 in   Clear
6:55 AM 50.0 °F 50.0 °F 100% 29.86 in 7.0 mi East 3.5 mph - 0.00 in   Clear
7:15 AM 48.2 °F 48.2 °F 100% 29.86 in 4.0 mi East 4.6 mph - 0.00 in   Clear
7:35 AM 48.2 °F 48.2 °F 100% 29.85 in 1.8 mi ESE 5.8 mph - 0.00 in   Clear
7:55 AM 51.8 °F 51.8 °F 100% 29.86 in 5.0 mi ESE 3.5 mph - 0.00 in   Clear
8:15 AM 53.6 °F 53.6 °F 100% 29.86 in 6.0 mi SE 6.9 mph - 0.00 in   Clear
8:35 AM 55.4 °F 55.4 °F 100% 29.86 in 5.0 mi SE 5.8 mph - 0.00 in   Clear
8:55 AM 55.4 °F 55.4 °F 100% 29.86 in 8.0 mi SE 6.9 mph - 0.00 in   Clear
9:15 AM 57.2 °F 57.2 °F 100% 29.86 in 8.0 mi ESE 6.9 mph - 0.00 in   Clear
9:35 AM 60.8 °F 60.8 °F 100% 29.86 in 8.0 mi SE 9.2 mph - 0.00 in   Clear
9:55 AM 62.6 °F 60.8 °F 94% 29.85 in 9.0 mi SE 8.1 mph - 0.00 in   Clear
10:15 AM 62.6 °F 60.8 °F 94% 29.85 in 9.0 mi SE 8.1 mph - 0.00 in   Clear
10:35 AM 64.4 °F 60.8 °F 88% 29.85 in 8.0 mi SE 9.2 mph - 0.00 in   Clear
10:55 AM 64.4 °F 60.8 °F 88% 29.85 in 9.0 mi SE 8.1 mph - 0.00 in   Clear
11:15 AM 66.2 °F 60.8 °F 83% 29.84 in 9.0 mi SE 10.4 mph - 0.00 in   Clear
11:35 AM 68.0 °F 60.8 °F 78% 29.83 in 10.0 mi SE 11.5 mph - 0.00 in   Clear
11:55 AM 69.8 °F 59.0 °F 68% 29.82 in 9.0 mi SE 13.8 mph 17.3 mph 0.00 in   Clear
12:15 PM 69.8 °F 60.8 °F 73% 29.82 in 8.0 mi SE 10.4 mph - 0.00 in   Clear
12:35 PM 73.4 °F 57.2 °F 57% 29.81 in 9.0 mi SSE 16.1 mph 20.7 mph 0.00 in   Clear
1:15 PM 75.2 °F 55.4 °F 50% 29.80 in 8.0 mi South 20.7 mph 26.5 mph 0.00 in   Clear
1:35 PM 75.2 °F 55.4 °F 50% 29.78 in 9.0 mi SSE 20.7 mph 26.5 mph 0.00 in   Clear
1:55 PM 77.0 °F 55.4 °F 47% 29.77 in 8.0 mi SSE 19.6 mph 27.6 mph 0.00 in   Clear
2:15 PM 77.0 °F 55.4 °F 47% 29.76 in 8.0 mi SSE 21.9 mph 27.6 mph 0.00 in   Clear
2:35 PM 78.8 °F 55.4 °F 44% 29.75 in 9.0 mi South 15.0 mph 25.3 mph 0.00 in   Clear
2:55 PM 78.8 °F 55.4 °F 44% 29.74 in 8.0 mi South 20.7 mph - 0.00 in   Clear
3:15 PM 78.8 °F 55.4 °F 44% 29.74 in 8.0 mi South 20.7 mph 26.5 mph 0.00 in   Clear
3:55 PM 78.8 °F 55.4 °F 44% 29.72 in 8.0 mi SSE 19.6 mph 25.3 mph 0.00 in   Clear
4:15 PM 77.0 °F 55.4 °F 47% 29.72 in 8.0 mi SSE 18.4 mph 24.2 mph 0.00 in   Clear
4:35 PM 78.8 °F 55.4 °F 44% 29.71 in 9.0 mi SSE 16.1 mph 25.3 mph 0.00 in   Partly Cloudy
4:55 PM 78.8 °F 55.4 °F 44% 29.70 in 9.0 mi SSE 17.3 mph 23.0 mph 0.00 in   Clear
5:15 PM 77.0 °F 55.4 °F 47% 29.70 in 8.0 mi SE 17.3 mph 23.0 mph 0.00 in   Partly Cloudy
5:35 PM 77.0 °F 55.4 °F 47% 29.70 in 9.0 mi SE 18.4 mph 24.2 mph 0.00 in   Clear
5:55 PM 75.2 °F 53.6 °F 47% 29.70 in 9.0 mi SE 17.3 mph 25.3 mph 0.00 in   Clear
6:15 PM 75.2 °F 53.6 °F 47% 29.70 in 8.0 mi SE 16.1 mph 25.3 mph 0.00 in   Clear
6:35 PM 73.4 °F 51.8 °F 47% 29.70 in 7.0 mi SE 16.1 mph 25.3 mph 0.00 in   Clear
6:55 PM 71.6 °F 51.8 °F 50% 29.69 in 10.0 mi SE 17.3 mph 24.2 mph 0.00 in   Clear
7:15 PM 71.6 °F 48.2 °F 43% 29.70 in 9.0 mi ESE 13.8 mph - 0.00 in   Clear
7:35 PM 69.8 °F 50.0 °F 49% 29.71 in 8.0 mi ESE 10.4 mph - 0.00 in   Clear
7:55 PM 66.2 °F 50.0 °F 56% 29.71 in 10.0 mi ESE 10.4 mph 17.3 mph 0.00 in   Clear
8:15 PM 66.2 °F 50.0 °F 56% 29.71 in 10.0 mi ESE 10.4 mph - 0.00 in   Clear
8:35 PM 66.2 °F 50.0 °F 56% 29.72 in 10.0 mi ESE 10.4 mph - 0.00 in   Clear
8:55 PM 64.4 °F 51.8 °F 64% 29.72 in 9.0 mi ESE 10.4 mph - 0.00 in   Clear
9:15 PM 62.6 °F 51.8 °F 68% 29.73 in 10.0 mi ESE 9.2 mph - 0.00 in   Clear
9:35 PM 62.6 °F 51.8 °F 68% 29.73 in 10.0 mi ESE 10.4 mph - 0.00 in   Clear
9:55 PM 62.6 °F 51.8 °F 68% 29.73 in 10.0 mi ESE 10.4 mph - 0.00 in   Clear
10:15 PM 62.6 °F 51.8 °F 68% 29.73 in 10.0 mi ESE 12.7 mph 18.4 mph 0.00 in   Clear
10:35 PM 64.4 °F 51.8 °F 64% 29.73 in 10.0 mi SE 12.7 mph - 0.00 in   Clear
10:55 PM 64.4 °F 51.8 °F 64% 29.73 in 10.0 mi SE 15.0 mph 23.0 mph 0.00 in   Clear
11:15 PM 64.4 °F 51.8 °F 64% 29.73 in 10.0 mi SE 17.3 mph 25.3 mph 0.00 in   Clear
11:35 PM 64.4 °F 51.8 °F 64% 29.73 in 10.0 mi SE 17.3 mph 28.8 mph 0.00 in   Clear
11:55 PM 64.4 °F 51.8 °F 64% 29.74 in 10.0 mi SE 16.1 mph 19.6 mph 0.00 in   Clear